createdAt,value
2023-02-14T00:02:18.609Z,3.66
2023-02-14T00:04:50.302Z,3.61
2023-02-14T00:07:20.359Z,3.61
2023-02-14T00:09:48.967Z,3.64
2023-02-14T00:12:17.344Z,3.65
2023-02-14T00:15:03.255Z,3.67
2023-02-14T00:17:31.863Z,3.69
2023-02-14T00:20:00.413Z,3.72
2023-02-14T00:22:30.394Z,3.68
2023-02-14T00:24:58.838Z,3.70
2023-02-14T00:27:27.331Z,3.72
2023-02-14T00:29:58.209Z,3.72
2023-02-14T00:32:26.652Z,3.67
2023-02-14T00:34:55.020Z,3.68
2023-02-14T00:37:23.413Z,3.70
2023-02-14T00:39:53.241Z,3.68
2023-02-14T00:42:21.544Z,3.69
2023-02-14T00:44:49.911Z,3.64
2023-02-14T00:47:18.355Z,3.62
2023-02-14T00:49:46.709Z,3.60
2023-02-14T00:52:15.230Z,3.57
2023-02-14T00:54:43.609Z,3.55
2023-02-14T00:57:13.317Z,3.54
2023-02-14T00:59:41.676Z,3.55
2023-02-14T01:02:10.176Z,3.58
2023-02-14T01:04:38.551Z,3.57
2023-02-14T01:07:06.828Z,3.53
2023-02-14T01:09:35.320Z,3.54
2023-02-14T01:12:03.648Z,3.54
2023-02-14T01:14:33.403Z,3.55
2023-02-14T01:17:01.766Z,3.60
2023-02-14T01:19:30.072Z,3.59
2023-02-14T01:21:58.401Z,3.58
2023-02-14T01:24:26.854Z,3.57
2023-02-14T01:26:55.215Z,3.57
2023-02-14T01:29:23.547Z,3.57
2023-02-14T01:31:54.964Z,3.53
2023-02-14T01:34:23.327Z,3.49
2023-02-14T01:36:51.646Z,3.47
2023-02-14T01:39:19.960Z,3.46
2023-02-14T01:41:49.566Z,3.44
2023-02-14T01:44:55.022Z,3.41
2023-02-14T01:47:26.712Z,3.39
2023-02-14T01:49:58.871Z,3.39
2023-02-14T01:52:31.713Z,3.35
2023-02-14T01:55:03.404Z,3.33
2023-02-14T01:57:37.278Z,3.28
2023-02-14T02:00:26.546Z,3.22
2023-02-14T02:02:57.179Z,3.22
2023-02-14T02:05:25.819Z,3.22
2023-02-14T02:07:57.472Z,3.24
2023-02-14T02:10:26.043Z,3.21
2023-02-14T02:12:56.079Z,3.19
2023-02-14T02:15:27.637Z,3.16
2023-02-14T02:18:04.189Z,3.19
2023-02-14T02:20:52.120Z,3.19
2023-02-14T02:23:48.989Z,3.18
2023-02-14T02:27:04.627Z,3.20
2023-02-14T02:30:14.196Z,3.20
2023-02-14T02:33:20.525Z,3.13
2023-02-14T02:36:04.745Z,3.12
2023-02-14T02:38:54.986Z,3.14
2023-02-14T02:41:35.688Z,3.18
2023-02-14T02:44:18.816Z,3.17
2023-02-14T02:46:54.167Z,3.15
2023-02-14T02:49:50.716Z,3.14
2023-02-14T02:52:45.572Z,3.15
2023-02-14T02:55:21.655Z,3.11
2023-02-14T02:57:51.796Z,3.10
2023-02-14T03:00:22.899Z,3.06
2023-02-14T03:03:11.841Z,3.03
2023-02-14T03:05:41.004Z,3.00
2023-02-14T03:08:10.722Z,2.99
2023-02-14T03:10:40.668Z,3.03
2023-02-14T03:13:39.855Z,3.02
2023-02-14T03:16:33.753Z,3.06
2023-02-14T03:20:04.008Z,3.06
2023-02-14T03:22:44.712Z,3.01
2023-02-14T03:25:25.426Z,3.02
2023-02-14T03:27:58.574Z,3.07
2023-02-14T03:30:40.351Z,3.04
2023-02-14T03:33:16.619Z,2.93
2023-02-14T03:35:53.361Z,2.90
2023-02-14T03:38:26.883Z,2.88
2023-02-14T03:41:00.615Z,2.86
2023-02-14T03:43:33.026Z,2.82
2023-02-14T03:46:07.526Z,2.84
2023-02-14T03:48:38.038Z,2.89
2023-02-14T03:51:10.504Z,2.83
2023-02-14T03:53:44.893Z,2.71
2023-02-14T03:56:18.578Z,2.70
2023-02-14T03:58:51.754Z,2.72
2023-02-14T04:01:25.464Z,2.79
2023-02-14T04:03:56.911Z,2.81
2023-02-14T04:06:25.394Z,2.85
2023-02-14T04:08:53.838Z,2.90
2023-02-14T04:11:35.605Z,2.93
2023-02-14T04:14:04.194Z,2.95
2023-02-14T04:16:53.810Z,2.86
2023-02-14T04:19:24.112Z,2.79
2023-02-14T04:21:53.004Z,2.77
2023-02-14T04:24:21.379Z,2.72
2023-02-14T04:27:09.926Z,2.73
2023-02-14T04:29:39.740Z,2.79
2023-02-14T04:32:10.421Z,2.78
2023-02-14T04:34:39.698Z,2.81
2023-02-14T04:37:08.865Z,2.87
2023-02-14T04:39:37.607Z,2.89
2023-02-14T04:42:07.809Z,2.92
2023-02-14T04:44:38.170Z,2.93
2023-02-14T04:47:07.383Z,2.94
2023-02-14T04:49:36.344Z,2.92
2023-02-14T04:52:05.072Z,2.92
2023-02-14T04:54:34.401Z,2.93
2023-02-14T04:57:02.726Z,2.89
2023-02-14T04:59:32.500Z,2.87
2023-02-14T05:02:00.840Z,2.90
2023-02-14T05:04:29.168Z,2.91
2023-02-14T05:06:57.490Z,2.88
2023-02-14T05:09:25.895Z,2.86
2023-02-14T05:11:54.620Z,2.87
2023-02-14T05:14:23.238Z,2.90
2023-02-14T05:16:53.155Z,2.91
2023-02-14T05:19:21.588Z,2.90
2023-02-14T05:21:49.952Z,2.90
2023-02-14T05:24:18.572Z,2.89
2023-02-14T05:26:46.939Z,2.91
2023-02-14T05:29:15.235Z,2.91
2023-02-14T05:31:43.855Z,2.87
2023-02-14T05:34:13.662Z,2.89
2023-02-14T05:36:42.027Z,2.88
2023-02-14T05:39:10.838Z,2.90
2023-02-14T05:44:06.698Z,2.91
2023-02-14T05:46:35.003Z,2.88
2023-02-14T05:49:03.707Z,2.87
2023-02-14T05:51:33.435Z,2.84
2023-02-14T05:54:01.806Z,2.84
2023-02-14T05:56:30.220Z,2.85
2023-02-14T05:58:58.541Z,2.84
2023-02-14T06:01:26.911Z,2.84
2023-02-14T06:03:55.286Z,2.86
2023-02-14T06:06:23.623Z,2.85
2023-02-14T06:08:53.324Z,2.85
2023-02-14T06:11:21.719Z,2.79
2023-02-14T06:13:50.058Z,2.76
2023-02-14T06:16:18.450Z,2.75
2023-02-14T06:18:46.847Z,2.72
2023-02-14T06:21:15.845Z,2.68
2023-02-14T06:23:44.216Z,2.65
2023-02-14T06:26:13.933Z,2.66
2023-02-14T06:28:42.833Z,2.65
2023-02-14T06:31:17.070Z,2.63
2023-02-14T06:33:45.599Z,2.58
2023-02-14T06:36:14.088Z,2.56
2023-02-14T06:38:42.676Z,2.53
2023-02-14T06:41:15.032Z,2.54
2023-02-14T06:43:43.771Z,2.54
2023-02-14T06:46:12.478Z,2.52
2023-02-14T06:48:40.863Z,2.53
2023-02-14T06:51:09.235Z,2.60
2023-02-14T06:53:37.853Z,2.62
2023-02-14T06:56:06.990Z,2.66
2023-02-14T06:58:36.711Z,2.69
2023-02-14T07:01:05.569Z,2.70
2023-02-14T07:03:34.030Z,2.71
2023-02-14T07:06:02.714Z,2.66
2023-02-14T07:08:31.070Z,2.65
2023-02-14T07:11:00.006Z,2.65
2023-02-14T07:13:28.558Z,2.70
2023-02-14T07:15:58.363Z,2.73
2023-02-14T07:18:26.824Z,2.76
2023-02-14T07:20:55.153Z,2.81
2023-02-14T07:23:23.528Z,2.86
2023-02-14T07:25:51.868Z,2.86
2023-02-14T07:28:20.146Z,2.86
2023-02-14T07:30:48.693Z,2.87
2023-02-14T07:33:18.434Z,2.86
2023-02-14T07:35:46.747Z,2.86
2023-02-14T07:38:15.046Z,2.84
2023-02-14T07:40:43.407Z,2.82
2023-02-14T07:43:12.012Z,2.80
2023-02-14T07:45:40.270Z,2.80
2023-02-14T07:48:08.689Z,2.84
2023-02-14T07:50:38.450Z,2.85
2023-02-14T07:53:08.550Z,2.86
2023-02-14T07:55:36.886Z,2.88
2023-02-14T07:58:05.163Z,2.90
2023-02-14T08:00:33.665Z,2.93
2023-02-14T08:03:02.018Z,2.99
2023-02-14T08:05:31.005Z,3.01
2023-02-14T08:08:00.720Z,3.03
2023-02-14T08:10:29.133Z,3.04
2023-02-14T08:12:59.856Z,2.99
2023-02-14T08:15:47.264Z,2.93
2023-02-14T08:18:17.512Z,2.90
2023-02-14T08:20:46.193Z,2.92
2023-02-14T08:23:16.568Z,2.92
2023-02-14T08:25:44.869Z,2.87
2023-02-14T08:28:14.902Z,2.92
2023-02-14T08:30:44.691Z,2.98
2023-02-14T08:33:13.452Z,2.95
2023-02-14T08:35:41.854Z,2.94
2023-02-14T08:38:10.827Z,2.97
2023-02-14T08:40:41.570Z,2.99
2023-02-14T08:43:10.587Z,3.04
2023-02-14T08:45:39.371Z,3.13
2023-02-14T08:48:09.893Z,3.21
2023-02-14T08:50:38.837Z,3.31
2023-02-14T08:53:09.460Z,3.34
2023-02-14T08:55:38.793Z,3.41
2023-02-14T08:58:09.242Z,3.54
2023-02-14T09:00:37.690Z,3.57
2023-02-14T09:03:06.167Z,3.56
2023-02-14T09:05:34.932Z,3.60
2023-02-14T09:08:03.413Z,3.64
2023-02-14T09:10:32.074Z,3.68
2023-02-14T09:13:00.408Z,3.78
2023-02-14T09:15:30.132Z,3.90
2023-02-14T09:17:58.534Z,4.03
2023-02-14T09:20:27.053Z,4.04
2023-02-14T09:22:56.992Z,4.03
2023-02-14T09:25:25.363Z,4.03
2023-02-14T09:27:53.708Z,4.04
2023-02-14T09:30:22.109Z,4.06
2023-02-14T09:32:54.036Z,4.15
2023-02-14T09:35:22.405Z,4.19
2023-02-14T09:37:50.730Z,4.30
2023-02-14T09:40:20.535Z,4.43
2023-02-14T09:43:01.956Z,4.50
2023-02-14T09:45:34.122Z,4.59
2023-02-14T09:48:08.338Z,4.70
2023-02-14T09:50:41.212Z,4.82
2023-02-14T09:53:20.090Z,4.96
2023-02-14T09:55:53.514Z,5.13
2023-02-14T09:58:27.028Z,5.26
2023-02-14T10:01:03.370Z,5.41
2023-02-14T10:03:49.073Z,5.59
2023-02-14T10:06:34.989Z,5.76
2023-02-14T10:09:13.131Z,5.85
2023-02-14T10:11:44.795Z,5.90
2023-02-14T10:14:17.113Z,5.97
2023-02-14T10:16:50.263Z,6.10
2023-02-14T10:19:24.902Z,6.19
2023-02-14T10:21:56.316Z,6.27
2023-02-14T10:24:28.798Z,6.35
2023-02-14T10:27:03.186Z,6.42
2023-02-14T10:29:31.547Z,6.49
2023-02-14T10:32:02.121Z,6.58
2023-02-14T10:34:42.760Z,6.69
2023-02-14T10:37:29.809Z,6.82
2023-02-14T10:40:10.716Z,6.96
2023-02-14T10:42:51.419Z,7.07
2023-02-14T10:45:27.240Z,7.19
2023-02-14T10:47:59.820Z,7.23
2023-02-14T10:50:38.410Z,7.29
2023-02-14T10:53:20.960Z,7.43
2023-02-14T10:55:57.055Z,7.54
2023-02-14T10:58:28.737Z,7.60
2023-02-14T11:01:02.854Z,7.66
2023-02-14T11:03:31.541Z,7.73
2023-02-14T11:06:01.360Z,7.77
2023-02-14T11:08:34.317Z,7.80
2023-02-14T11:11:11.914Z,7.86
2023-02-14T11:13:41.105Z,7.99
2023-02-14T11:16:11.566Z,8.09
2023-02-14T11:18:41.455Z,8.11
2023-02-14T11:21:13.242Z,8.21
2023-02-14T11:23:43.488Z,8.27
2023-02-14T11:26:21.518Z,8.42
2023-02-14T11:28:53.741Z,8.58
2023-02-14T11:31:31.185Z,8.73
2023-02-14T11:34:01.936Z,8.80
2023-02-14T11:36:39.815Z,8.89
2023-02-14T11:39:24.890Z,8.95
2023-02-14T11:41:55.492Z,9.02
2023-02-14T11:44:26.111Z,9.12
2023-02-14T11:46:56.868Z,9.25
2023-02-14T11:49:33.868Z,9.40
2023-02-14T11:52:11.481Z,9.50
2023-02-14T11:54:42.316Z,9.61
2023-02-14T11:57:15.697Z,9.67
2023-02-14T11:59:46.409Z,9.71
2023-02-14T12:02:31.953Z,9.76
2023-02-14T12:05:04.322Z,9.85
2023-02-14T12:07:37.563Z,9.99
2023-02-14T12:10:19.280Z,10.04
2023-02-14T12:12:53.382Z,10.07
2023-02-14T12:15:29.545Z,10.11
2023-02-14T12:18:10.454Z,10.22
2023-02-14T12:20:43.110Z,10.33
2023-02-14T12:23:19.466Z,10.50
2023-02-14T12:25:55.623Z,10.58
2023-02-14T12:28:30.773Z,10.64
2023-02-14T12:30:59.941Z,10.68
2023-02-14T12:33:28.571Z,10.76
2023-02-14T12:36:10.255Z,10.81
2023-02-14T12:38:52.456Z,10.81
2023-02-14T12:41:41.754Z,10.84
2023-02-14T12:44:17.664Z,10.86
2023-02-14T12:47:09.429Z,10.92
2023-02-14T12:49:53.181Z,10.96
2023-02-14T12:52:38.786Z,11.01
2023-02-14T12:55:33.076Z,11.05
2023-02-14T12:58:07.697Z,11.14
2023-02-14T13:00:45.965Z,11.20
2023-02-14T13:03:33.091Z,11.20
2023-02-14T13:06:08.602Z,11.19
2023-02-14T13:09:03.303Z,11.22
2023-02-14T13:11:43.547Z,11.20
2023-02-14T13:14:22.443Z,11.29
2023-02-14T13:16:56.927Z,11.33
2023-02-14T13:19:36.294Z,11.44
2023-02-14T13:22:07.006Z,11.52
2023-02-14T13:24:40.517Z,11.56
2023-02-14T13:27:15.294Z,11.54
2023-02-14T13:29:48.140Z,11.58
2023-02-14T13:32:20.455Z,11.67
2023-02-14T13:34:49.871Z,11.71
2023-02-14T13:37:21.229Z,11.74
2023-02-14T13:39:55.355Z,11.82
2023-02-14T13:42:55.837Z,11.87
2023-02-14T13:45:57.249Z,11.90
2023-02-14T13:48:27.515Z,11.94
2023-02-14T13:50:58.974Z,11.99
2023-02-14T13:53:36.655Z,12.03
2023-02-14T13:56:07.395Z,12.00
2023-02-14T13:58:37.224Z,11.99
2023-02-14T14:01:31.398Z,12.01
2023-02-14T14:04:01.822Z,12.05
2023-02-14T14:07:09.345Z,12.07
2023-02-14T14:09:57.120Z,12.07
2023-02-14T14:12:45.032Z,12.07
2023-02-14T14:15:19.032Z,12.09
2023-02-14T14:18:29.949Z,12.11
2023-02-14T14:20:58.583Z,12.10
2023-02-14T14:23:33.589Z,12.11
2023-02-14T14:26:03.353Z,12.15
2023-02-14T14:28:33.460Z,12.14
2023-02-14T14:31:03.335Z,12.15
2023-02-14T14:33:34.207Z,12.23
2023-02-14T14:36:07.337Z,12.33
2023-02-14T14:38:47.673Z,12.48
2023-02-14T14:41:16.205Z,12.64
2023-02-14T14:43:44.998Z,12.74
2023-02-14T14:46:15.842Z,12.84
2023-02-14T14:48:47.041Z,12.95
2023-02-14T14:51:23.492Z,13.05
2023-02-14T14:53:55.816Z,13.13
2023-02-14T14:56:26.887Z,13.24
2023-02-14T14:58:55.960Z,13.28
2023-02-14T15:01:37.337Z,13.23
2023-02-14T15:04:13.329Z,13.16
2023-02-14T15:06:42.075Z,13.09
2023-02-14T15:09:15.643Z,12.85
2023-02-14T15:12:04.171Z,12.55
2023-02-14T15:14:38.188Z,12.23
2023-02-14T15:17:15.563Z,12.05
2023-02-14T15:19:48.639Z,11.89
2023-02-14T15:22:21.565Z,11.73
2023-02-14T15:24:50.574Z,11.59
2023-02-14T15:27:21.609Z,11.42
2023-02-14T15:29:58.647Z,11.28
2023-02-14T15:32:31.890Z,11.16
2023-02-14T15:35:03.130Z,11.07
2023-02-14T15:37:34.942Z,10.95
2023-02-14T15:40:06.801Z,10.88
2023-02-14T15:42:41.338Z,10.79
2023-02-14T15:45:22.317Z,10.70
2023-02-14T15:47:55.334Z,10.60
2023-02-14T15:50:27.792Z,10.53
2023-02-14T15:53:01.084Z,10.40
2023-02-14T15:55:30.793Z,10.33
2023-02-14T15:58:02.482Z,10.27
2023-02-14T16:00:32.180Z,10.19
2023-02-14T16:03:06.832Z,10.11
2023-02-14T16:05:35.596Z,10.02
2023-02-14T16:08:05.949Z,9.91
2023-02-14T16:10:36.264Z,9.79
2023-02-14T16:13:08.607Z,9.69
2023-02-14T16:15:42.118Z,9.61
2023-02-14T16:18:33.322Z,9.53
2023-02-14T16:21:13.052Z,9.39
2023-02-14T16:23:41.682Z,9.27
2023-02-14T16:26:10.439Z,9.13
2023-02-14T16:28:38.863Z,9.00
2023-02-14T16:31:11.190Z,8.88
2023-02-14T16:33:41.996Z,8.77
2023-02-14T16:36:20.674Z,8.70
2023-02-14T16:38:50.011Z,8.60
2023-02-14T16:41:20.637Z,8.53
2023-02-14T16:43:50.348Z,8.45
2023-02-14T16:46:21.638Z,8.38
2023-02-14T16:48:52.519Z,8.30
2023-02-14T16:51:24.231Z,8.22
2023-02-14T16:53:53.044Z,8.16
2023-02-14T16:56:24.847Z,8.08
2023-02-14T16:58:53.181Z,8.04
2023-02-14T17:01:21.614Z,7.99
2023-02-14T17:03:51.349Z,7.93
2023-02-14T17:06:23.603Z,7.86
2023-02-14T17:08:54.045Z,7.80
2023-02-14T17:11:24.329Z,7.75
2023-02-14T17:13:54.498Z,7.72
2023-02-14T17:16:23.395Z,7.69
2023-02-14T17:18:53.518Z,7.59
2023-02-14T17:21:24.166Z,7.49
2023-02-14T17:23:52.476Z,7.45
2023-02-14T17:26:20.831Z,7.42
2023-02-14T17:28:49.131Z,7.38
2023-02-14T17:31:18.122Z,7.29
2023-02-14T17:33:46.522Z,7.24
2023-02-14T17:36:16.346Z,7.19
2023-02-14T17:38:45.006Z,7.13
2023-02-14T17:41:14.850Z,7.05
2023-02-14T17:43:43.707Z,6.99
2023-02-14T17:46:14.233Z,6.90
2023-02-14T17:48:45.358Z,6.81
2023-02-14T17:51:14.858Z,6.76
2023-02-14T17:53:44.758Z,6.70
2023-02-14T17:56:17.845Z,6.64
2023-02-14T17:58:47.747Z,6.60
2023-02-14T18:01:18.200Z,6.50
2023-02-14T18:03:47.296Z,6.43
2023-02-14T18:06:16.316Z,6.39
2023-02-14T18:08:49.341Z,6.25
2023-02-14T18:11:19.439Z,6.14
2023-02-14T18:13:48.444Z,6.03
2023-02-14T18:16:18.671Z,5.98
2023-02-14T18:18:47.220Z,5.89
2023-02-14T18:21:18.922Z,5.78
2023-02-14T18:23:48.635Z,5.70
2023-02-14T18:26:18.096Z,5.68
2023-02-14T18:28:46.962Z,5.63
2023-02-14T18:31:18.053Z,5.58
2023-02-14T18:33:47.604Z,5.52
2023-02-14T18:36:18.023Z,5.49
2023-02-14T18:38:49.577Z,5.43
2023-02-14T18:41:19.705Z,5.32
2023-02-14T18:43:49.147Z,5.23
2023-02-14T18:46:19.467Z,5.17
2023-02-14T18:48:47.945Z,5.12
2023-02-14T18:51:19.548Z,5.06
2023-02-14T18:53:52.148Z,4.97
2023-02-14T18:56:24.024Z,4.85
2023-02-14T18:58:56.256Z,4.81
2023-02-14T19:01:28.695Z,4.81
2023-02-14T19:03:59.574Z,4.78
2023-02-14T19:06:29.469Z,4.72
2023-02-14T19:08:59.532Z,4.65
2023-02-14T19:11:31.725Z,4.61
2023-02-14T19:14:02.907Z,4.55
2023-02-14T19:16:33.527Z,4.46
2023-02-14T19:19:02.666Z,4.39
2023-02-14T19:21:33.658Z,4.36
2023-02-14T19:24:06.866Z,4.38
2023-02-14T19:26:40.166Z,4.34
2023-02-14T19:29:10.937Z,4.30
2023-02-14T19:31:41.423Z,4.25
2023-02-14T19:34:17.027Z,4.20
2023-02-14T19:36:45.714Z,4.18
2023-02-14T19:39:16.221Z,4.21
2023-02-14T19:41:44.571Z,4.25
2023-02-14T19:44:14.788Z,4.24
2023-02-14T19:46:43.863Z,4.13
2023-02-14T19:49:15.124Z,4.12
2023-02-14T19:51:43.879Z,4.14
2023-02-14T19:54:13.330Z,4.09
2023-02-14T19:56:45.207Z,4.07
2023-02-14T19:59:19.654Z,4.04
2023-02-14T20:01:49.837Z,4.03
2023-02-14T20:04:20.432Z,4.04
2023-02-14T20:06:49.745Z,4.01
2023-02-14T20:09:18.642Z,4.02
2023-02-14T20:11:50.287Z,4.06
2023-02-14T20:14:19.843Z,4.05
2023-02-14T20:16:49.006Z,4.02
2023-02-14T20:19:19.761Z,4.03
2023-02-14T20:21:49.966Z,4.02
2023-02-14T20:24:21.304Z,3.99
2023-02-14T20:26:52.890Z,3.93
2023-02-14T20:29:22.862Z,3.95
2023-02-14T20:31:52.783Z,3.93
2023-02-14T20:34:22.252Z,3.92
2023-02-14T20:36:53.268Z,3.92
2023-02-14T20:39:23.287Z,3.86
2023-02-14T20:41:54.048Z,3.84
2023-02-14T20:44:22.889Z,3.82
2023-02-14T20:46:54.144Z,3.75
2023-02-14T20:49:24.065Z,3.68
2023-02-14T20:51:53.928Z,3.71
2023-02-14T20:54:24.335Z,3.70
2023-02-14T20:56:54.191Z,3.74
2023-02-14T20:59:26.879Z,3.74
2023-02-14T21:01:55.907Z,3.76
2023-02-14T21:04:24.670Z,3.74
2023-02-14T21:06:57.694Z,3.72
2023-02-14T21:09:26.131Z,3.73
2023-02-14T21:11:55.924Z,3.75
2023-02-14T21:14:24.295Z,3.76
2023-02-14T21:16:52.613Z,3.74
2023-02-14T21:19:20.963Z,3.73
2023-02-14T21:21:49.348Z,3.75
2023-02-14T21:24:18.054Z,3.76
2023-02-14T21:26:46.572Z,3.73
2023-02-14T21:29:16.593Z,3.68
2023-02-14T21:31:45.032Z,3.63
2023-02-14T21:34:16.244Z,3.62
2023-02-14T21:36:44.617Z,3.59
2023-02-14T21:39:13.041Z,3.53
2023-02-14T21:41:41.428Z,3.49
2023-02-14T21:44:10.399Z,3.34
2023-02-14T21:46:41.024Z,3.30
2023-02-14T21:49:27.033Z,3.28
2023-02-14T21:51:55.363Z,3.33
2023-02-14T21:54:23.738Z,3.40
2023-02-14T21:56:52.124Z,3.40
2023-02-14T21:59:20.489Z,3.45
2023-02-14T22:01:50.222Z,3.44
2023-02-14T22:04:18.630Z,3.40
2023-02-14T22:06:47.082Z,3.36
2023-02-14T22:09:17.455Z,3.33
2023-02-14T22:11:47.569Z,3.30
2023-02-14T22:14:16.444Z,3.36
2023-02-14T22:16:44.823Z,3.42
2023-02-14T22:19:17.422Z,3.44
2023-02-14T22:21:45.854Z,3.43
2023-02-14T22:24:14.475Z,3.39
2023-02-14T22:26:43.056Z,3.37
2023-02-14T22:29:13.446Z,3.39
2023-02-14T22:31:44.356Z,3.39
2023-02-14T22:34:15.017Z,3.37
2023-02-14T22:36:44.908Z,3.31
2023-02-14T22:39:15.734Z,3.29
2023-02-14T22:41:44.698Z,3.26
2023-02-14T22:44:14.085Z,3.22
2023-02-14T22:46:42.821Z,3.25
2023-02-14T22:49:11.262Z,3.19
2023-02-14T22:51:41.410Z,3.13
2023-02-14T22:54:13.709Z,3.15
2023-02-14T22:56:43.713Z,3.13
2023-02-14T22:59:16.672Z,3.14
2023-02-14T23:01:45.432Z,3.16
2023-02-14T23:04:14.437Z,3.20
2023-02-14T23:06:42.991Z,3.20
2023-02-14T23:09:14.201Z,3.22
2023-02-14T23:11:44.023Z,3.22
2023-02-14T23:14:30.996Z,3.21
2023-02-14T23:17:17.225Z,3.23
2023-02-14T23:20:13.206Z,3.23
2023-02-14T23:22:42.268Z,3.21
2023-02-14T23:25:14.639Z,3.09
2023-02-14T23:27:45.737Z,3.07
2023-02-14T23:30:17.247Z,3.06
2023-02-14T23:32:49.254Z,2.99
2023-02-14T23:35:17.584Z,2.86
2023-02-14T23:37:45.945Z,2.65
2023-02-14T23:40:15.681Z,2.48
2023-02-14T23:42:43.989Z,2.35
2023-02-14T23:45:29.829Z,2.25
2023-02-14T23:48:02.596Z,2.31
2023-02-14T23:50:30.923Z,2.34
2023-02-14T23:52:59.745Z,2.30
2023-02-14T23:55:29.484Z,2.36
2023-02-14T23:57:57.836Z,2.43
